METAR Data
IDs: Format: Raw Decoded Include TAF

Data at: 0841 UTC 23 Sep 2018

KESN 230153Z 01005KT 10SM SCT090 18/13 A3023
KESN 230045Z 05007KT 10SM BKN080 19/13 A3021
KESN 222345Z 03008KT 10SM SCT080 20/14 A3021
KESN 222250Z 02009KT 10SM SCT120 21/15 A3019
KESN 222150Z 02007KT 10SM SCT120 24/15 A3017
KESN 222050Z 01009KT 10SM SCT120 25/14 A3016
KESN 221950Z 03009KT 10SM SCT120 26/14 A3016
KESN 221850Z 35008KT 10SM SCT120 25/15 A3016
KESN 221750Z 01008KT 10SM SCT031 27/17 A3015
KESN 221645Z 01005KT 10SM SCT031 27/19 A3014
KESN 221550Z 35007KT 10SM SCT070 27/19 A3015
KESN 221455Z 01008KT 10SM SCT050 SCT085 26/19 A3014
KESN 221352Z 34004KT 10SM BKN040 25/22 A3014
KESN 221250Z 01005KT 10SM SCT038 BKN049 24/22 A3011
KESN 221150Z 00000KT 10SM OVC012 24/22 A3011
KESN 221050Z 00000KT 10SM OVC014 24/22 A3009
KESN 220950Z 31005KT 10SM BKN016 24/22 A3008
KESN 220145Z 20007KT 10SM SKC 23/21 A3010
KESN 220045Z 20008KT 10SM SKC 24/20 A3008
KESN 212350Z 19010KT 10SM SCT032 24/20 A3008
KESN 212250Z 19005KT 10SM OVC034 25/20 A3011
KESN 212150Z 18006KT 10SM OVC034 25/20 A3012
KESN 212050Z 18007KT 10SM OVC034 25/19 A3013